WEATHER DATA

YESTERDAY
Time Temp. Dewp. Hum. Wind dir Wind speed Wind gust Bar. 1h Prec. 24h Prec.
00:18 5.4 2.4 81 270 0.3 1.9 1011 0.0000 0.0000
00:29 5.3 2.3 81 270 0.3 1.4 1011.3 0.0000 0.0000
00:38 5.3 2.3 81 270 0.3 0.8 1011.4 0.0000 0.0000
00:48 5.3 2.3 81 270 0.3 1.9 1011.4 0.0000 0.0000
00:59 5.3 2.3 81 270 0.3 1.4 1011.7 0.0000 0.0000
01:09 5.3 2.3 81 322 0.3 1.4 1011.7 0.0000 0.0000
01:19 5.3 2.1 80 270 0.3 1.4 1011.8 0.0000 0.0000
01:28 5.2 2 80 315 0.3 1.4 1012 0.0000 0.0000
01:39 5.2 2 80 298 0.8 2.5 1012 0.0000 0.0000
01:49 5.1 1.8 79 281 0.8 1.4 1012.1 0.0000 0.0000
01:59 5 1.7 79 291 0.8 2.5 1012.4 0.0000 0.0000
02:09 4.9 1.6 79 270 0.3 1.9 1012.4 0.0000 0.0000
02:20 4.8 1.5 79 307 0.8 1.4 1012.6 0.0000 0.0000
02:29 4.8 1.5 79 295 0.8 1.9 1012.8 0.0000 0.0000
02:39 4.7 1.4 79 270 0.3 1.4 1012.9 0.0000 0.0000
02:50 4.7 1.5 80 270 0.8 2.2 1013 0.0000 0.0000
03:00 4.6 1.5 80 315 0.8 2.2 1013.1 0.0000 0.0000
03:10 4.6 1.3 79 288 0.8 2.2 1013.3 0.0000 0.0000
03:20 4.6 1.3 79 270 0.8 1.4 1013.4 0.0000 0.0000
03:30 4.6 1.5 80 270 0.3 1.9 1013.5 0.0000 0.0000
03:40 4.5 1.4 80 315 0.8 1.4 1013.6 0.0000 0.0000
03:50 4.6 1.6 81 270 0.3 1.4 1013.4 0.0000 0.0000
04:01 4.5 1.4 80 270 0.3 1.4 1013.5 0.0000 0.0000
04:11 4.5 1.4 80 270 0.3 1.4 1013.7 0.0000 0.0000
04:20 4.4 1.3 80 270 0.3 1.9 1013.9 0.0000 0.0000
04:30 4.4 1.4 81 307 0.3 1.4 1013.8 0.0000 0.0000
04:41 4.4 1.4 81 315 0.3 1.4 1013.8 0.0000 0.0000
04:51 4.3 1.3 81 270 0.3 1.4 1014.1 0.0000 0.0000
05:01 4.3 1.3 81 270 0.3 1.1 1014.2 0.0000 0.0000
05:11 4.4 1.4 81 270 0.3 1.4 1014.2 0.0000 0.0000
05:21 4.5 1.4 80 270 0.3 1.4 1014.3 0.0000 0.0000
05:31 4.4 1.3 80 270 0.3 1.4 1014.3 0.0000 0.0000
05:41 4.4 1.3 80 270 0.3 1.4 1014.4 0.0000 0.0000
05:52 4.4 1.3 80 270 0.3 1.4 1014.6 0.0000 0.0000
06:02 4.4 1.3 80 294 0.8 1.4 1014.7 0.0000 0.0000
06:10 4.4 1.3 80 309 0.3 1.9 1014.9 0.0000 0.0000
06:22 4.4 1.3 80 270 0.3 1.4 1015 0.0000 0.0000
06:32 4.3 1.2 80 270 0.3 2.2 1015.1 0.0000 0.0000
06:42 4.3 1.3 81 270 0.3 1.1 1015.2 0.0000 0.0000
06:52 4.4 1.4 81 270 0.3 1.4 1015.4 0.0000 0.0000
07:02 4.4 1.4 81 292 0.8 1.4 1015.5 0.0000 0.0000
07:12 4.4 1.3 80 288 0.8 2.5 1015.6 0.0000 0.0000
07:22 4.3 1.2 80 270 0.3 1.4 1015.6 0.0000 0.0000
07:32 4.3 1.3 81 270 0.3 1.4 1015.6 0.0000 0.0000
07:43 4.4 1.4 81 284 0.8 1.4 1015.9 0.0000 0.0000
07:53 4.5 1.4 80 270 0.3 1.4 1015.9 0.0000 0.0000
07:57 4.5 1.4 80 302 0.3 1.9 1015.9 0.0000 0.0000
08:07 4.6 1.5 80 270 0.3 1.4 1016.1 0.0000 0.0000
08:18 4.6 1.5 80 270 0.8 1.4 1016.1 0.0000 0.0000
08:28 4.7 1.5 80 270 0.3 2.2 1016.2 0.0000 0.0000
08:37 4.6 1.5 80 315 0.8 1.4 1016.4 0.0000 0.0000
08:48 4.7 1.5 80 305 0.3 1.9 1016.5 0.0000 0.0000
08:58 4.7 1.5 80 270 0.3 1.4 1016.5 0.0000 0.0000
09:08 4.7 1.4 79 270 0.3 1.1 1016.9 0.0000 0.0000
09:18 4.6 1.5 80 270 0.8 1.4 1017 0.0000 0.0000
09:29 4.7 1.5 80 270 0.3 1.4 1017 0.0000 0.0000
09:38 4.7 1.5 80 325 0.3 1.4 1017 0.0000 0.0000
09:48 4.8 1.6 80 288 0.8 1.9 1017 0.0000 0.0000
09:59 4.9 1.7 80 270 0.3 1.1 1017.2 0.0000 0.0000
10:09 4.8 1.6 80 270 0.3 1.1 1017.2 0.0000 0.0000
10:19 4.9 1.7 80 270 0.3 2.2 1017.2 0.0000 0.0000
10:24 5.2 2 80 270 0.3 1.1 1017.1 0.0000 0.0000
10:39 5.4 2.1 79 270 0.3 1.1 1017.2 0.0000 0.0000
10:49 5.4 2.1 79 270 0.8 1.4 1017.1 0.0000 0.0000
10:59 5.4 2.1 79 270 0.8 1.9 1017.1 0.0000 0.0000
11:09 5.5 2.2 79 270 0.3 1.1 1017.3 0.0000 0.0000
11:15 5.4 2.1 79 270 0.3 1.4 1017.4 0.0000 0.0000
11:29 5.4 2.1 79 308 0.8 1.9 1017.3 0.0000 0.0000
11:39 5.4 2.1 79 270 0.3 1.4 1017.3 0.0000 0.0000
11:50 5.5 2.2 79 270 0.3 1.4 1017.2 0.0000 0.0000
12:00 5.6 2.3 79 270 0.3 1.1 1017 0.0000 0.0000
12:10 5.6 2.3 79 270 0.3 1.4 1017.2 0.0000 0.0000
12:20 5.6 2.3 79 270 0.3 1.1 1017.3 0.0000 0.0000
12:30 5.6 2.3 79 315 0.3 1.4 1017.3 0.0000 0.0000
12:40 5.5 2.2 79 315 0.8 1.4 1017.3 0.0000 0.0000
12:50 5.5 2.2 79 315 0.8 3.1 1017.2 0.0000 0.0000
13:01 5.4 2.1 79 306 0.8 1.9 1017.1 0.0000 0.0000
13:06 5.4 2.2 80 270 0.8 1.4 1017 0.0000 0.0000
13:20 5.3 2.1 80 257 0.8 3.1 1017.2 0.0000 0.0000
13:30 5.3 2.1 80 315 0.8 1.9 1016.9 0.1010 0.1000
13:41 5.3 2.1 80 309 0.3 1.4 1017.1 0.1010 0.1000
13:51 5.2 2 80 270 0.3 1.4 1017.1 0.1010 0.1000
13:56 5.2 2 80 291 0.8 1.4 1017.1 0.1010 0.1000
14:11 5.4 2.2 80 270 0.3 1.9 1016.8 0.1010 0.1000
14:21 5.3 2.1 80 309 0.3 1.4 1017.1 0.1010 0.1000
14:31 5.3 2.1 80 270 0.3 1.4 1017.2 0.0000 0.1000
14:41 5.4 2.2 80 302 0.3 1.1 1017.2 0.0000 0.1000
14:52 5.5 2.3 80 270 0.3 1.1 1017.1 0.0000 0.1000
15:02 5.5 2.3 80 270 0.3 1.4 1017.1 0.0000 0.1000
15:11 5.5 2.3 80 315 0.3 1.1 1017.2 0.0000 0.1000
15:21 5.6 2.3 79 270 0.3 1.4 1017.1 0.0000 0.1000
15:32 5.6 1.9 77 330 0.3 1.4 1017.1 0.0000 0.1000
15:42 5.5 1.6 76 315 0.8 1.9 1017.2 0.0000 0.1000
15:47 5.5 1.6 76 315 0.3 1.1 1017.3 0.0000 0.1000
16:02 5.3 1.6 77 285 0.8 1.4 1017.5 0.0000 0.1000
16:12 5.3 1.6 77 270 0.3 1.4 1017.3 0.0000 0.1000
16:22 5.2 1.7 78 303 0.3 1.4 1017.5 0.0000 0.1000
16:32 5.2 1.9 79 288 0.8 1.9 1017.6 0.0000 0.1000
16:38 5.2 1.9 79 315 0.3 1.4 1017.5 0.0000 0.1000
16:52 5.1 1.6 78 315 0.8 1.4 1017.8 0.0000 0.1000
17:02 5 1.5 78 270 0.3 1.4 1017.8 0.0000 0.1000
17:13 4.9 1.6 79 309 0.8 1.9 1018 0.0000 0.1000
17:23 4.8 1.5 79 270 0.3 1.4 1018 0.0000 0.1000
17:28 4.8 1.5 79 284 0.8 1.4 1017.9 0.0000 0.1000
17:40 4.7 1.2 78 270 0.3 1.1 1018.1 0.0000 0.1000
17:45 4.7 1.4 79 270 0.3 1.4 1018.2 0.0000 0.1000
18:00 4.6 1.3 79 270 0.3 1.4 1018.2 0.0000 0.1000
18:10 4.5 1.2 79 282 0.8 1.4 1018.1 0.0000 0.1000
18:20 4.5 1 78 270 0.3 1.9 1018.2 0.0000 0.1000
18:30 4.4 1.1 79 270 0.3 1.4 1018.3 0.0000 0.1000
18:41 4.3 1 79 284 0.8 1.1 1018.3 0.0000 0.1000
18:50 4.3 1 79 270 0.3 1.4 1018.4 0.0000 0.1000
19:00 4.3 0.8 78 270 0.3 1.1 1018.4 0.0000 0.1000
19:10 4.3 1 79 305 0.3 1.9 1018.6 0.0000 0.1000
19:21 4.3 0.8 78 270 0.3 1.1 1018.7 0.0000 0.1000
19:31 4.3 0.8 78 270 0.3 1.1 1018.7 0.0000 0.1000
19:41 4.2 0.7 78 270 0.3 1.1 1018.7 0.0000 0.1000
19:51 4.1 0.6 78 270 0.3 1.4 1018.7 0.0000 0.1000
20:01 4.1 0.6 78 270 0.3 1.4 1018.6 0.0000 0.1000
20:11 4 0.5 78 306 0.3 1.4 1018.5 0.0000 0.1000
20:21 4 0.5 78 270 0.3 1.4 1018.8 0.0000 0.1000
20:32 4 0.5 78 270 0.3 2.5 1018.6 0.0000 0.1000
20:41 3.9 0.4 78 281 0.8 1.9 1018.5 0.0000 0.1000
20:51 3.9 0.4 78 315 0.8 1.9 1018.6 0.0000 0.1000
21:02 3.9 0.4 78 270 0.3 1.4 1018.7 0.0000 0.1000
21:12 4 0.7 79 270 0.3 1.4 1018.8 0.0000 0.1000
21:22 3.9 0.4 78 270 0.8 1.9 1019 0.0000 0.1000
21:31 4 0.5 78 270 0.3 1.1 1019.1 0.0000 0.1000
21:42 3.9 0.4 78 284 0.8 1.4 1018.9 0.0000 0.1000
21:52 3.8 0.3 78 304 0.3 1.1 1019 0.0000 0.1000
22:02 3.8 0.5 79 270 0.3 1.1 1019 0.0000 0.1000
22:12 3.8 0.5 79 309 0.3 1.1 1019.1 0.0000 0.1000
22:24 3.8 0.5 79 270 0.3 1.4 1019 0.0000 0.1000
22:34 3.7 0.4 79 270 0.3 1.1 1019.1 0.0000 0.1000
22:53 3.7 0.4 79 307 0.3 1.1 1019 0.0000 0.1000
23:04 3.6 0.3 79 270 0.3 1.4 1019.2 0.0000 0.1000
23:14 3.6 0.3 79 270 0.3 1.1 1019 0.0000 0.1000
23:24 3.6 0.3 79 270 0.3 1.1 1019 0.0000 0.1000
23:34 3.6 0.3 79 309 0.3 1.1 1019 0.0000 0.1000
23:44 3.6 0.3 79 315 0.3 1.4 1019.1 0.0000 0.1000
23:54 3.6 0.5 80 270 0.3 1.1 1019.1 0.0000 0.1000

DAY STATISTIC

2018-12-10
TEMPERATURE
AVERAGE
4.7
HIGH
5.6
12:00
LOW
3.6
23:04
PRESSURE
AVERAGE
1016.4
HIGH
1019.2
23:04
LOW
1011.0
00:18
DEWPOINT
AVERAGE
1.5
HIGH
2.4
00:18
LOW
0.3
21:52
HUMIDITY
AVERAGE
79
HIGH
81
00:18
LOW
76
15:42
WIND SPEED
AVERAGE
0.4
HIGH
0.8
01:39
WIND GUST
AVERAGE
1.5
HIGH
3.1
12:50
WIND DIRECTION
PREVAILING
W
71.6%
N
0.0
NE
0.0
E
0.0
SE
0.0
S
0.0
SW
0.0
W
71.6
NW
28.4
PRECIPITATION
RAIN HOUR
0.1
RAIN DAY
0.1
TEMPERATURE (°C)
LOW
3.6
HIGH
5.6
AVERAGE
4.7
PRESSURE (hpa)
LOW
1011.0
HIGH
1019.2
AVERAGE
1016.4
DEVICE